Airfield :
LOGIN :

Register | Disclaimer

   EN    FR    IT 

 










Legend :    VFR   Marginal VFR   IFR   Intensive IFR   Very Intensive IFR
Visi :
Ceiling :
>= 8 km
>= 3000ft
5 to 8 km
1000 to 3000 ft
1500m to 5 km
500 to 1000 ft
800 to 1500m
200 to 500 ft
< 800m
< 200 ft
Symbols :   Thunderstorms  Fog  Heavy snow  Heavy precipitations  Wind > 20 kt
SIGMETs :     Misc.  Thunderstorms  Icing  Turbulence  Mountain Waves  Volcanic Ashes







- Airport Elevation : 348 ft
- IATA code : LDV
- Download approach charts


LFRJ - Landivisiau

CURRENT METAR :
  • 171700Z AUTO 22013KT 9999 FEW014 SCT044 OVC052 19/16 Q1015

EXPIRED METARs :
  • 171630Z AUTO 22015KT 9999 SCT013 SCT019 BKN044 19/16 Q1016
  • 171600Z AUTO 24015KT 9999 SCT014 BKN020 OVC052 20/16 Q1016
  • 171530Z AUTO 24013KT 9999 FEW015 SCT021 BKN027 20/17 Q1016
  • 171500Z AUTO 23013KT 9999 FEW016 SCT022 OVC054 21/17 Q1016
  • 171430Z AUTO 23014KT 9999 FEW017 SCT022 OVC056 21/17 Q1016

Expired Forecast.
No reported NOTAMs for that airfield.



MET'MAP, your aeronautical weather chart ! - Copyright ORBIFLY December 2007 - Disclaimer

ORBIFLY MET'MAP TEAM :

Programming & Development : Alexandra Zaïnal
Concept & Development : Baudouin d'Aumeries
Co-Development & Prog : Marc-Olivier Méhu
Technical & hardware support : Manuel Goepfert

Contact : metmap@orbifly.com




SOURCES & CREDITS :

   NOAA